sensor_id;sensor_type;location;lat;lon;timestamp;pressure;altitude;pressure_sealevel;temperature;humidity
68508;BME280;55510;49.560;19.090;2023-07-29T10:13:28;96009.25;;;22.67;81.65
68508;BME280;55510;49.560;19.090;2023-07-29T10:16:29;96010.16;;;22.93;79.31
68508;BME280;55510;49.560;19.090;2023-07-29T10:19:30;96007.00;;;23.03;80.56
68508;BME280;55510;49.560;19.090;2023-07-29T10:22:40;96009.72;;;23.24;77.70
68508;BME280;55510;49.560;19.090;2023-07-29T10:25:46;96013.47;;;23.32;78.33
68508;BME280;55510;49.560;19.090;2023-07-29T10:28:48;96017.94;;;23.49;75.29
68508;BME280;55510;49.560;19.090;2023-07-29T10:31:53;96008.06;;;23.44;75.05
68508;BME280;55510;49.560;19.090;2023-07-29T10:34:55;96012.03;;;23.47;75.08
68508;BME280;55510;49.560;19.090;2023-07-29T10:37:55;96003.00;;;23.55;75.19
68508;BME280;55510;49.560;19.090;2023-07-29T10:40:57;96014.53;;;23.65;75.04
68508;BME280;55510;49.560;19.090;2023-07-29T10:44:00;96005.81;;;23.46;71.55
68508;BME280;55510;49.560;19.090;2023-07-29T10:47:11;95999.16;;;23.56;74.75
68508;BME280;55510;49.560;19.090;2023-07-29T10:50:19;96002.44;;;23.74;75.90
68508;BME280;55510;49.560;19.090;2023-07-29T10:53:29;96011.84;;;23.89;70.19
68508;BME280;55510;49.560;19.090;2023-07-29T10:56:35;96005.84;;;23.71;68.21
68508;BME280;55510;49.560;19.090;2023-07-29T10:59:36;95985.13;;;23.54;67.97
68508;BME280;55510;49.560;19.090;2023-07-29T11:02:37;95989.19;;;23.60;67.84
68508;BME280;55510;49.560;19.090;2023-07-29T11:05:50;95982.63;;;23.61;68.17
68508;BME280;55510;49.560;19.090;2023-07-29T11:08:51;95983.53;;;23.66;67.40
68508;BME280;55510;49.560;19.090;2023-07-29T11:11:52;95990.56;;;23.79;66.22
68508;BME280;55510;49.560;19.090;2023-07-29T11:14:53;95988.88;;;23.74;65.15
68508;BME280;55510;49.560;19.090;2023-07-29T11:17:58;95975.06;;;23.80;65.25
68508;BME280;55510;49.560;19.090;2023-07-29T11:20:59;95970.75;;;23.91;66.76
68508;BME280;55510;49.560;19.090;2023-07-29T11:24:01;95975.50;;;23.94;66.21
68508;BME280;55510;49.560;19.090;2023-07-29T11:27:02;95975.41;;;23.90;66.80
68508;BME280;55510;49.560;19.090;2023-07-29T11:30:07;95977.91;;;24.08;67.99
68508;BME280;55510;49.560;19.090;2023-07-29T11:33:12;95980.34;;;24.26;70.03
68508;BME280;55510;49.560;19.090;2023-07-29T11:36:19;95985.56;;;24.18;65.28
68508;BME280;55510;49.560;19.090;2023-07-29T11:39:20;95972.25;;;24.54;67.80
68508;BME280;55510;49.560;19.090;2023-07-29T11:42:21;95974.91;;;24.79;65.44
68508;BME280;55510;49.560;19.090;2023-07-29T11:45:22;95960.72;;;25.30;66.13
68508;BME280;55510;49.560;19.090;2023-07-29T11:48:28;95961.25;;;25.84;65.07
68508;BME280;55510;49.560;19.090;2023-07-29T11:51:29;95958.94;;;26.18;61.88
68508;BME280;55510;49.560;19.090;2023-07-29T11:54:29;95958.81;;;26.50;63.03
68508;BME280;55510;49.560;19.090;2023-07-29T11:57:31;95954.00;;;26.44;61.17
68508;BME280;55510;49.560;19.090;2023-07-29T12:00:34;95950.38;;;26.04;60.24
68508;BME280;55510;49.560;19.090;2023-07-29T12:03:34;95947.38;;;25.57;60.17
68508;BME280;55510;49.560;19.090;2023-07-29T12:06:35;95941.50;;;25.55;60.56
68508;BME280;55510;49.560;19.090;2023-07-29T12:09:37;95946.59;;;25.57;61.99
68508;BME280;55510;49.560;19.090;2023-07-29T12:12:46;95945.34;;;25.22;61.65
68508;BME280;55510;49.560;19.090;2023-07-29T12:15:47;95947.13;;;24.86;63.18
68508;BME280;55510;49.560;19.090;2023-07-29T12:18:50;95950.91;;;24.69;64.10
68508;BME280;55510;49.560;19.090;2023-07-29T12:21:50;95954.25;;;24.50;66.82
68508;BME280;55510;49.560;19.090;2023-07-29T12:24:51;95954.38;;;24.41;68.67
68508;BME280;55510;49.560;19.090;2023-07-29T12:27:53;95961.56;;;24.21;70.98
68508;BME280;55510;49.560;19.090;2023-07-29T12:30:55;95969.50;;;23.76;72.79
68508;BME280;55510;49.560;19.090;2023-07-29T12:33:56;95977.69;;;22.96;75.63
68508;BME280;55510;49.560;19.090;2023-07-29T12:36:58;95965.13;;;22.37;87.30
68508;BME280;55510;49.560;19.090;2023-07-29T12:39:59;95963.16;;;21.95;89.01
68508;BME280;55510;49.560;19.090;2023-07-29T12:43:00;95973.19;;;21.55;92.33
68508;BME280;55510;49.560;19.090;2023-07-29T12:46:01;95977.56;;;21.39;97.80
68508;BME280;55510;49.560;19.090;2023-07-29T12:49:02;95983.06;;;21.51;100.00
68508;BME280;55510;49.560;19.090;2023-07-29T12:52:02;95983.19;;;21.72;97.45
68508;BME280;55510;49.560;19.090;2023-07-29T12:55:04;95981.88;;;21.79;95.74
68508;BME280;55510;49.560;19.090;2023-07-29T12:58:05;95983.72;;;21.87;94.69
68508;BME280;55510;49.560;19.090;2023-07-29T13:01:06;95968.47;;;21.82;97.95
68508;BME280;55510;49.560;19.090;2023-07-29T13:04:06;95971.69;;;21.76;92.05
68508;BME280;55510;49.560;19.090;2023-07-29T13:07:07;95964.47;;;21.88;100.00
68508;BME280;55510;49.560;19.090;2023-07-29T13:10:11;95970.81;;;21.93;97.18
68508;BME280;55510;49.560;19.090;2023-07-29T13:13:12;95965.66;;;22.00;90.30
68508;BME280;55510;49.560;19.090;2023-07-29T13:16:13;95970.31;;;21.99;90.26
68508;BME280;55510;49.560;19.090;2023-07-29T13:19:13;95967.69;;;22.33;90.16
68508;BME280;55510;49.560;19.090;2023-07-29T13:22:14;95967.41;;;22.56;89.25
68508;BME280;55510;49.560;19.090;2023-07-29T13:25:15;95966.53;;;22.64;87.09
68508;BME280;55510;49.560;19.090;2023-07-29T13:28:16;95962.00;;;22.68;84.76
68508;BME280;55510;49.560;19.090;2023-07-29T13:31:17;95959.81;;;22.83;86.76
68508;BME280;55510;49.560;19.090;2023-07-29T13:34:17;95952.59;;;22.87;83.52
68508;BME280;55510;49.560;19.090;2023-07-29T13:37:18;95942.84;;;22.86;80.28
68508;BME280;55510;49.560;19.090;2023-07-29T13:40:19;95942.09;;;22.98;80.17
68508;BME280;55510;49.560;19.090;2023-07-29T13:43:20;95927.78;;;23.10;81.24
68508;BME280;55510;49.560;19.090;2023-07-29T13:46:20;95930.53;;;23.35;84.84
68508;BME280;55510;49.560;19.090;2023-07-29T13:49:21;95945.97;;;23.43;78.26
68508;BME280;55510;49.560;19.090;2023-07-29T13:52:22;95936.91;;;23.51;82.50
68508;BME280;55510;49.560;19.090;2023-07-29T13:55:23;95938.16;;;23.41;78.78
68508;BME280;55510;49.560;19.090;2023-07-29T13:58:23;95933.25;;;23.35;74.57
68508;BME280;55510;49.560;19.090;2023-07-29T14:01:24;95933.16;;;23.31;76.58
68508;BME280;55510;49.560;19.090;2023-07-29T14:04:25;95939.38;;;23.31;75.04
68508;BME280;55510;49.560;19.090;2023-07-29T14:07:25;95942.72;;;23.16;72.52
68508;BME280;55510;49.560;19.090;2023-07-29T14:10:26;95936.53;;;22.94;74.47
68508;BME280;55510;49.560;19.090;2023-07-29T14:13:27;95934.19;;;22.93;75.73
68508;BME280;55510;49.560;19.090;2023-07-29T14:16:27;95931.13;;;22.94;75.13
68508;BME280;55510;49.560;19.090;2023-07-29T14:19:28;95920.16;;;22.91;75.75
68508;BME280;55510;49.560;19.090;2023-07-29T14:22:29;95916.25;;;23.00;75.54
68508;BME280;55510;49.560;19.090;2023-07-29T14:25:29;95916.03;;;23.18;73.88
68508;BME280;55510;49.560;19.090;2023-07-29T14:28:30;95917.31;;;23.45;76.28
68508;BME280;55510;49.560;19.090;2023-07-29T14:31:31;95904.97;;;23.98;76.66
68508;BME280;55510;49.560;19.090;2023-07-29T14:34:32;95906.44;;;24.48;72.81
68508;BME280;55510;49.560;19.090;2023-07-29T14:37:32;95902.38;;;25.15;71.89
68508;BME280;55510;49.560;19.090;2023-07-29T14:40:33;95907.47;;;25.17;69.26
68508;BME280;55510;49.560;19.090;2023-07-29T14:43:34;95897.66;;;25.28;67.71
68508;BME280;55510;49.560;19.090;2023-07-29T14:46:35;95893.34;;;25.11;69.32
68508;BME280;55510;49.560;19.090;2023-07-29T14:49:36;95887.50;;;24.97;70.90
68508;BME280;55510;49.560;19.090;2023-07-29T14:52:37;95887.72;;;24.47;71.27
68508;BME280;55510;49.560;19.090;2023-07-29T14:55:37;95893.47;;;24.29;72.26
68508;BME280;55510;49.560;19.090;2023-07-29T14:58:38;95891.16;;;24.03;71.46
68508;BME280;55510;49.560;19.090;2023-07-29T15:01:39;95888.78;;;24.01;74.50
68508;BME280;55510;49.560;19.090;2023-07-29T15:04:39;95901.34;;;23.81;75.11
68508;BME280;55510;49.560;19.090;2023-07-29T15:07:40;95905.00;;;23.73;75.03
68508;BME280;55510;49.560;19.090;2023-07-29T15:10:45;95904.78;;;23.66;75.22
68508;BME280;55510;49.560;19.090;2023-07-29T15:13:46;95897.97;;;23.72;75.63
68508;BME280;55510;49.560;19.090;2023-07-29T15:16:46;95899.09;;;23.83;76.82
68508;BME280;55510;49.560;19.090;2023-07-29T15:19:47;95903.63;;;23.92;78.23
